^^
Saratoga-Weather Station Historical Data
Daily Summary for January 17, 2022 Units:  English    Metric   Both
Daily Weekly Monthly Yearly Custom
  High: Low: Average:
Temperature: 39.9 °F 32.5 °F 36.3 °F
Dew Point: 38.3 °F 31.3 °F 35.1 °F
Humidity: 96% 93% 95%
Wind Speed: 10.1mph 0mph 2.4mph
Wind Gust: 13mph - -
Wind- - West
Pressure: 30.6 in 30.5 in -
Precipitation: 0.01 in    
Historical Graphs
 
 
Tabular Data for January 17, 2022
Time Temperature Dew Point Pressure Wind Wind Speed Wind Gust Humidity Rainfall Rate (Hourly) solar
00:00 32.5 °F 31.3 °F 30.5 in Calm     95% 0 in 0 W/m2
00:05 32.5 °F 31.3 °F 30.5 in WSW 2 mph 4 mph 95% 0 in 0 W/m2
00:10 32.5 °F 31.3 °F 30.5 in Calm   1 mph 95% 0 in 0 W/m2
00:15 32.7 °F 31.5 °F 30.5 in West 0.9 mph 4 mph 95% 0 in 0 W/m2
00:20 32.7 °F 31.5 °F 30.5 in WSW 0.9 mph 1 mph 95% 0 in 0 W/m2
00:26 32.7 °F 31.5 °F 30.5 in Calm   2 mph 95% 0 in 0 W/m2
00:31 32.7 °F 31.5 °F 30.5 in North 2 mph 3 mph 95% 0 in 0 W/m2
00:36 32.7 °F 31.5 °F 30.5 in North 0.9 mph 1 mph 95% 0 in 0 W/m2
00:41 32.7 °F 31.5 °F 30.5 in Calm   2 mph 95% 0 in 0 W/m2
00:46 32.7 °F 31.5 °F 30.5 in Calm     95% 0 in 0 W/m2
00:51 32.7 °F 31.5 °F 30.5 in Calm     95% 0 in 0 W/m2
00:56 32.7 °F 31.5 °F 30.5 in WSW 2 mph 3 mph 95% 0 in 0 W/m2
01:01 32.7 °F 31.5 °F 30.5 in Calm     95% 0 in 0 W/m2
01:06 32.7 °F 31.5 °F 30.5 in SSW 0.9 mph 5 mph 95% 0 in 0 W/m2
01:11 32.7 °F 31.5 °F 30.5 in Calm     95% 0 in 0 W/m2
01:16 32.7 °F 31.5 °F 30.5 in Calm     95% 0 in 0 W/m2
01:21 32.9 °F 31.6 °F 30.5 in Calm     95% 0 in 0 W/m2
01:26 32.7 °F 31.5 °F 30.5 in Calm   1 mph 95% 0 in 0 W/m2
01:31 32.7 °F 31.5 °F 30.5 in Calm   1 mph 95% 0 in 0 W/m2
01:36 32.9 °F 31.6 °F 30.5 in Calm   1 mph 95% 0 in 0 W/m2
01:41 32.9 °F 31.6 °F 30.5 in Calm   2 mph 95% 0.01 in 0 W/m2
01:46 33.1 °F 32 °F 30.5 in Calm   1 mph 96% 0.01 in 0 W/m2
01:51 33.1 °F 32 °F 30.5 in ENE 0.9 mph 3 mph 96% 0.01 in 0 W/m2
01:56 33.1 °F 32 °F 30.5 in Calm   2 mph 96% 0.01 in 0 W/m2
02:01 33.1 °F 32 °F 30.5 in NNW 0.9 mph 2 mph 96% 0.01 in 0 W/m2
02:06 33.1 °F 32 °F 30.5 in NW 2 mph 3 mph 96% 0.01 in 0 W/m2
02:11 33.1 °F 32 °F 30.5 in Calm     96% 0.01 in 0 W/m2
02:16 33.1 °F 32 °F 30.5 in Calm   2 mph 96% 0.01 in 0 W/m2
02:21 33.1 °F 32 °F 30.5 in West 0.9 mph 2 mph 96% 0.01 in 0 W/m2
02:26 33.1 °F 32 °F 30.5 in Calm   1 mph 96% 0.01 in 0 W/m2
02:31 33.1 °F 32 °F 30.5 in Calm   1 mph 96% 0.01 in 0 W/m2
02:36 33.3 °F 32.2 °F 30.5 in West 0.9 mph 5 mph 96% 0.01 in 0 W/m2
02:41 33.3 °F 32.2 °F 30.5 in East 2 mph 3 mph 96% 0 in 0 W/m2
02:46 33.3 °F 32.2 °F 30.5 in Calm   5 mph 96% 0 in 0 W/m2
02:51 33.3 °F 32.2 °F 30.5 in WSW 0.9 mph 1 mph 96% 0 in 0 W/m2
02:56 33.3 °F 32.2 °F 30.5 in Calm   2 mph 96% 0 in 0 W/m2
03:01 33.3 °F 32.2 °F 30.5 in SSE 0.9 mph 1 mph 96% 0 in 0 W/m2
03:06 33.3 °F 32.2 °F 30.5 in West 0.9 mph 1 mph 96% 0 in 0 W/m2
03:11 33.3 °F 32.2 °F 30.5 in Calm   1 mph 96% 0 in 0 W/m2
03:16 33.3 °F 32.2 °F 30.5 in West 2 mph 6 mph 96% 0 in 0 W/m2
03:21 33.3 °F 32.2 °F 30.5 in NNW 2 mph 4 mph 96% 0 in 0 W/m2
03:26 33.3 °F 32.2 °F 30.5 in WNW 2 mph 3 mph 96% 0 in 0 W/m2
03:31 33.3 °F 32.2 °F 30.5 in West 2 mph 3 mph 96% 0 in 0 W/m2
03:36 33.3 °F 32.2 °F 30.5 in West 2 mph 3 mph 96% 0 in 0 W/m2
03:41 33.3 °F 32.2 °F 30.5 in Calm   3 mph 96% 0 in 0 W/m2
03:46 33.3 °F 32.2 °F 30.5 in West 0.9 mph 4 mph 96% 0 in 0 W/m2
03:51 33.3 °F 32.2 °F 30.5 in WNW 2 mph 3 mph 96% 0 in 0 W/m2
03:56 33.3 °F 32.2 °F 30.5 in NW 4 mph 5 mph 96% 0 in 0 W/m2
04:01 33.3 °F 32.2 °F 30.5 in West 0.9 mph 4 mph 96% 0 in 0 W/m2
04:06 33.3 °F 32.2 °F 30.5 in WNW 2.9 mph 4 mph 96% 0 in 0 W/m2
04:11 33.3 °F 32.2 °F 30.5 in NNW 4.9 mph 6 mph 96% 0 in 0 W/m2
04:16 33.3 °F 32.2 °F 30.5 in NNW 0.9 mph 3 mph 96% 0 in 0 W/m2
04:21 33.3 °F 32.2 °F 30.5 in Calm   2 mph 96% 0 in 0 W/m2
04:26 33.3 °F 32.2 °F 30.5 in Calm   2 mph 96% 0 in 0 W/m2
04:31 33.3 °F 32.2 °F 30.5 in NW 2 mph 2 mph 96% 0 in 0 W/m2
04:36 33.3 °F 32.2 °F 30.5 in East 2 mph 3 mph 96% 0 in 0 W/m2
04:41 33.3 °F 32.2 °F 30.5 in East 2.9 mph 6 mph 96% 0 in 0 W/m2
04:46 33.4 °F 32.4 °F 30.5 in Calm   3 mph 96% 0 in 0 W/m2
04:51 33.4 °F 32.4 °F 30.5 in Calm   2 mph 96% 0 in 0 W/m2
04:56 33.4 °F 32.4 °F 30.5 in East 2 mph 2 mph 96% 0 in 0 W/m2
05:01 33.4 °F 32.4 °F 30.5 in ENE 0.9 mph 3 mph 96% 0 in 0 W/m2
05:06 33.4 °F 32.4 °F 30.5 in ENE 0.9 mph 2 mph 96% 0 in 0 W/m2
05:12 33.6 °F 32.5 °F 30.5 in NE 0.9 mph 1 mph 96% 0 in 0 W/m2
05:17 33.6 °F 32.5 °F 30.5 in NE 4 mph 5 mph 96% 0 in 0 W/m2
05:22 33.6 °F 32.5 °F 30.5 in ENE 0.9 mph 2 mph 96% 0 in 0 W/m2
05:27 33.6 °F 32.5 °F 30.5 in Calm   1 mph 96% 0 in 0 W/m2
05:32 33.6 °F 32.5 °F 30.5 in NNE 2 mph 2 mph 96% 0 in 0 W/m2
05:37 33.6 °F 32.5 °F 30.5 in Calm   3 mph 96% 0 in 0 W/m2
05:42 33.6 °F 32.5 °F 30.5 in ENE 0.9 mph 2 mph 96% 0 in 0 W/m2
05:47 33.6 °F 32.5 °F 30.5 in West 2.9 mph 3 mph 96% 0 in 0 W/m2
05:52 33.6 °F 32.5 °F 30.5 in Calm   4 mph 96% 0 in 0 W/m2
05:57 33.6 °F 32.5 °F 30.5 in ESE 0.9 mph 2 mph 96% 0 in 0 W/m2
06:02 33.6 °F 32.5 °F 30.5 in ESE 0.9 mph 4 mph 96% 0 in 0 W/m2
06:07 33.6 °F 32.5 °F 30.5 in Calm   2 mph 96% 0 in 0 W/m2
06:12 33.6 °F 32.5 °F 30.5 in West 2.9 mph 5 mph 96% 0 in 0 W/m2
06:17 33.6 °F 32.5 °F 30.5 in ENE 4 mph 4 mph 96% 0 in 0 W/m2
06:22 33.6 °F 32.5 °F 30.5 in Calm   5 mph 96% 0 in 0 W/m2
06:27 33.6 °F 32.5 °F 30.5 in NNW 0.9 mph 2 mph 96% 0 in 0 W/m2
06:32 33.6 °F 32.5 °F 30.5 in NE 0.9 mph 2 mph 96% 0 in 0 W/m2
06:37 33.8 °F 32.7 °F 30.5 in Calm   8 mph 96% 0 in 0 W/m2
06:42 33.6 °F 32.5 °F 30.5 in ENE 0.9 mph 8 mph 96% 0 in 0 W/m2
06:47 33.8 °F 32.7 °F 30.5 in Calm   2 mph 96% 0 in 0 W/m2
06:52 33.8 °F 32.7 °F 30.5 in Calm   8 mph 96% 0 in 0 W/m2
06:57 33.8 °F 32.7 °F 30.5 in Calm   4 mph 96% 0 in 0 W/m2
07:02 33.8 °F 32.7 °F 30.5 in NW 2.9 mph 7 mph 96% 0 in 0 W/m2
07:07 33.8 °F 32.7 °F 30.5 in NW 2.9 mph 4 mph 96% 0 in 0 W/m2
07:12 33.8 °F 32.7 °F 30.5 in West 2 mph 7 mph 96% 0 in 0 W/m2
07:17 33.8 °F 32.7 °F 30.5 in WNW 4 mph 6 mph 96% 0 in 0 W/m2
07:22 33.8 °F 32.7 °F 30.5 in WNW 2.9 mph 6 mph 96% 0 in 0 W/m2
07:27 33.8 °F 32.7 °F 30.5 in WSW 2 mph 3 mph 96% 0 in 0 W/m2
07:32 33.8 °F 32.7 °F 30.5 in WNW 4.9 mph 10 mph 96% 0 in 0 W/m2
07:37 33.8 °F 32.7 °F 30.5 in WSW 2.9 mph 8 mph 96% 0 in 0 W/m2
07:42 33.8 °F 32.7 °F 30.5 in WNW 4 mph 10 mph 96% 0 in 0 W/m2
07:47 33.8 °F 32.7 °F 30.5 in West 0.9 mph 9 mph 96% 0 in 0 W/m2
07:52 33.8 °F 32.7 °F 30.5 in NW 2.9 mph 10 mph 96% 0 in 0 W/m2
07:57 34 °F 32.9 °F 30.5 in NW 0.9 mph 7 mph 96% 0 in 0 W/m2
08:02 34 °F 32.9 °F 30.5 in WNW 6 mph 9 mph 96% 0 in 0 W/m2
08:07 34 °F 32.9 °F 30.5 in NNW 2 mph 6 mph 96% 0 in 0 W/m2
08:12 34 °F 32.9 °F 30.6 in NW 2 mph 2 mph 96% 0 in 0 W/m2
08:17 34 °F 32.9 °F 30.6 in WNW 2.9 mph 5 mph 96% 0 in 0 W/m2
08:22 34 °F 32.9 °F 30.6 in WNW 4 mph 9 mph 96% 0 in 0 W/m2
08:27 34 °F 32.9 °F 30.6 in West 4 mph 8 mph 96% 0 in 0 W/m2
08:32 34 °F 32.9 °F 30.6 in ESE 0.9 mph 4 mph 96% 0 in 0 W/m2
08:37 34 °F 32.9 °F 30.6 in WNW 2 mph 4 mph 96% 0 in 0 W/m2
08:42 34.2 °F 33.1 °F 30.6 in West 6 mph 7 mph 96% 0 in 0 W/m2
08:47 34.2 °F 33.1 °F 30.6 in West 0.9 mph 3 mph 96% 0 in 5 W/m2
08:52 34.2 °F 33.1 °F 30.6 in NW 2 mph 4 mph 96% 0 in 5 W/m2
08:57 34.2 °F 33.1 °F 30.6 in West 6 mph 6 mph 96% 0 in 7 W/m2
09:02 34.3 °F 33.3 °F 30.6 in SW 4 mph 6 mph 96% 0 in 9 W/m2
09:07 34.3 °F 33.3 °F 30.6 in NW 2.9 mph 4 mph 96% 0 in 12 W/m2
09:12 34.3 °F 33.3 °F 30.6 in NW 0.9 mph 8 mph 96% 0 in 14 W/m2
09:17 34.3 °F 33.3 °F 30.6 in NNW 2 mph 4 mph 96% 0 in 23 W/m2
09:22 34.3 °F 33.3 °F 30.6 in WNW 0.9 mph 8 mph 96% 0 in 28 W/m2
09:27 34.5 °F 33.4 °F 30.6 in NNW 2.9 mph 3 mph 96% 0 in 28 W/m2
09:32 34.5 °F 33.4 °F 30.6 in NW 0.9 mph 4 mph 96% 0 in 28 W/m2
09:37 34.5 °F 33.3 °F 30.6 in WNW 0.9 mph 1 mph 95% 0 in 28 W/m2
09:42 34.7 °F 33.4 °F 30.6 in NNE 0.9 mph 3 mph 95% 0 in 23 W/m2
09:47 34.7 °F 33.6 °F 30.6 in NNW 4 mph 4 mph 96% 0 in 19 W/m2
09:52 34.9 °F 33.8 °F 30.6 in NNW 0.9 mph 4 mph 96% 0 in 21 W/m2
09:57 34.9 °F 33.8 °F 30.6 in WNW 2 mph 5 mph 96% 0 in 25 W/m2
10:02 34.9 °F 33.8 °F 30.6 in NNW 2 mph 2 mph 96% 0 in 30 W/m2
10:07 34.9 °F 33.6 °F 30.6 in WNW 4.9 mph 6 mph 95% 0 in 40 W/m2
10:12 34.9 °F 33.6 °F 30.6 in WSW 4 mph 11 mph 95% 0 in 62 W/m2
10:17 35.1 °F 33.8 °F 30.6 in West 6 mph 9 mph 95% 0 in 72 W/m2
10:22 35.2 °F 34 °F 30.6 in WNW 10.1 mph 11 mph 95% 0 in 83 W/m2
10:27 35.2 °F 34 °F 30.6 in WNW 2.9 mph 7 mph 95% 0 in 86 W/m2
10:32 35.4 °F 34.2 °F 30.6 in WNW 4.9 mph 11 mph 95% 0 in 67 W/m2
10:37 35.4 °F 34.2 °F 30.6 in West 6 mph 7 mph 95% 0 in 62 W/m2
10:42 35.4 °F 34.2 °F 30.6 in West 6 mph 8 mph 95% 0 in 77 W/m2
10:47 35.6 °F 34.3 °F 30.6 in WNW 2.9 mph 8 mph 95% 0 in 70 W/m2
10:52 35.6 °F 34.3 °F 30.6 in NW 4.9 mph 7 mph 95% 0 in 53 W/m2
10:57 35.6 °F 34.3 °F 30.6 in WNW 6.9 mph 8 mph 95% 0 in 42 W/m2
11:02 35.8 °F 34.5 °F 30.6 in West 2.9 mph 7 mph 95% 0 in 42 W/m2
11:07 35.8 °F 34.5 °F 30.6 in NW 2 mph 3 mph 95% 0 in 58 W/m2
11:12 35.8 °F 34.5 °F 30.6 in West 2.9 mph 8 mph 95% 0 in 51 W/m2
11:17 35.8 °F 34.5 °F 30.6 in West 2 mph 8 mph 95% 0 in 70 W/m2
11:22 36 °F 34.7 °F 30.6 in WNW 4 mph 10 mph 95% 0 in 56 W/m2
11:27 36 °F 34.7 °F 30.6 in NW 2.9 mph 7 mph 95% 0 in 60 W/m2
11:32 36 °F 34.7 °F 30.6 in NW 2 mph 6 mph 95% 0 in 65 W/m2
11:37 36.1 °F 34.9 °F 30.6 in WNW 4.9 mph 7 mph 95% 0 in 98 W/m2
11:42 36.1 °F 34.9 °F 30.6 in NW 4 mph 6 mph 95% 0 in 81 W/m2
11:47 36.3 °F 35.1 °F 30.6 in WNW 2 mph 6 mph 95% 0 in 93 W/m2
11:52 36.3 °F 35.1 °F 30.6 in WSW 6 mph 9 mph 95% 0 in 88 W/m2
11:57 36.3 °F 35.1 °F 30.6 in West 4 mph 4 mph 95% 0 in 90 W/m2
12:02 36.5 °F 35.2 °F 30.6 in NW 2.9 mph 9 mph 95% 0 in 86 W/m2
12:07 36.7 °F 35.4 °F 30.6 in WNW 4.9 mph 7 mph 95% 0 in 95 W/m2
12:12 36.9 °F 35.6 °F 30.6 in West 2 mph 8 mph 95% 0 in 105 W/m2
12:17 36.9 °F 35.6 °F 30.6 in NW 4 mph 7 mph 95% 0 in 104 W/m2
12:23 36.9 °F 35.6 °F 30.6 in West 4 mph 9 mph 95% 0 in 104 W/m2
12:28 37 °F 35.8 °F 30.6 in WNW 4 mph 8 mph 95% 0 in 105 W/m2
12:33 37 °F 35.8 °F 30.6 in WNW 4 mph 9 mph 95% 0 in 114 W/m2
12:38 37 °F 35.8 °F 30.6 in NW 4 mph 8 mph 95% 0 in 105 W/m2
12:43 37 °F 35.4 °F 30.6 in West 6 mph 10 mph 94% 0 in 107 W/m2
12:48 37.2 °F 36 °F 30.6 in West 2 mph 5 mph 95% 0 in 109 W/m2
12:53 37.2 °F 36 °F 30.6 in WNW 2.9 mph 6 mph 95% 0 in 113 W/m2
12:58 37.2 °F 36 °F 30.6 in NW 4.9 mph 5 mph 95% 0 in 105 W/m2
13:03 37.4 °F 35.8 °F 30.6 in West 2 mph 8 mph 94% 0 in 83 W/m2
13:08 37.6 °F 36 °F 30.6 in NNW 4 mph 7 mph 94% 0 in 77 W/m2
13:13 37.6 °F 36 °F 30.6 in NW 2 mph 8 mph 94% 0 in 77 W/m2
13:18 37.6 °F 36.3 °F 30.6 in West 2 mph 7 mph 95% 0 in 62 W/m2
13:23 37.8 °F 36.5 °F 30.6 in WNW 2 mph 4 mph 95% 0 in 62 W/m2
13:28 37.8 °F 36.5 °F 30.6 in WSW 4 mph 8 mph 95% 0 in 65 W/m2
13:33 37.8 °F 36.5 °F 30.6 in West 2 mph 7 mph 95% 0 in 67 W/m2
13:38 37.8 °F 36.5 °F 30.6 in WSW 2 mph 8 mph 95% 0 in 74 W/m2
13:43 37.8 °F 36.5 °F 30.6 in WNW 4 mph 8 mph 95% 0 in 70 W/m2
13:48 37.8 °F 36.5 °F 30.6 in NW 2 mph 3 mph 95% 0 in 54 W/m2
13:53 37.8 °F 36.5 °F 30.6 in WNW 2.9 mph 8 mph 95% 0 in 58 W/m2
13:58 37.8 °F 36.5 °F 30.6 in West 4 mph 7 mph 95% 0 in 81 W/m2
14:03 37.8 °F 36.5 °F 30.6 in WSW 2.9 mph 6 mph 95% 0 in 69 W/m2
14:08 37.9 °F 36.7 °F 30.6 in WSW 4 mph 8 mph 95% 0 in 69 W/m2
14:13 37.9 °F 36.7 °F 30.6 in WSW 4.9 mph 7 mph 95% 0 in 60 W/m2
14:18 37.9 °F 36.7 °F 30.6 in WNW 4.9 mph 7 mph 95% 0 in 58 W/m2
14:23 37.9 °F 36.7 °F 30.6 in WNW 4.9 mph 8 mph 95% 0 in 58 W/m2
14:28 37.9 °F 36.7 °F 30.6 in WNW 6 mph 7 mph 95% 0 in 58 W/m2
14:33 37.9 °F 36.7 °F 30.6 in NW 2.9 mph 6 mph 95% 0 in 62 W/m2
14:38 38.1 °F 36.9 °F 30.6 in West 2 mph 7 mph 95% 0 in 77 W/m2
14:43 38.1 °F 36.9 °F 30.6 in WNW 2.9 mph 6 mph 95% 0 in 79 W/m2
14:48 38.1 °F 36.9 °F 30.6 in WNW 4 mph 9 mph 95% 0 in 72 W/m2
14:53 37.9 °F 36.7 °F 30.6 in West 6 mph 9 mph 95% 0 in 97 W/m2
14:58 38.1 °F 36.9 °F 30.6 in West 6.9 mph 13 mph 95% 0 in 79 W/m2
15:03 38.1 °F 36.9 °F 30.6 in NW 2.9 mph 8 mph 95% 0 in 67 W/m2
15:08 38.3 °F 37 °F 30.6 in West 6.9 mph 13 mph 95% 0 in 86 W/m2
15:13 38.3 °F 37 °F 30.6 in WNW 4.9 mph 10 mph 95% 0 in 72 W/m2
15:18 38.3 °F 37 °F 30.6 in West 8.1 mph 12 mph 95% 0 in 77 W/m2
15:23 38.5 °F 37.2 °F 30.6 in WNW 4 mph 10 mph 95% 0 in 69 W/m2
15:28 38.5 °F 37.2 °F 30.6 in West 4 mph 9 mph 95% 0 in 69 W/m2
15:33 38.5 °F 37.2 °F 30.6 in WSW 2.9 mph 8 mph 95% 0 in 53 W/m2
15:38 38.5 °F 37.2 °F 30.6 in NW 4.9 mph 13 mph 95% 0 in 69 W/m2
15:43 38.5 °F 37.2 °F 30.6 in WNW 2.9 mph 11 mph 95% 0 in 63 W/m2
15:48 38.7 °F 37.4 °F 30.6 in West 2.9 mph 9 mph 95% 0 in 58 W/m2
15:53 38.7 °F 37.4 °F 30.6 in West 8.1 mph 11 mph 95% 0 in 56 W/m2
15:58 38.7 °F 37.4 °F 30.6 in WNW 4 mph 12 mph 95% 0 in 54 W/m2
16:03 38.8 °F 37.6 °F 30.6 in WSW 4.9 mph 10 mph 95% 0 in 42 W/m2
16:08 38.8 °F 37.6 °F 30.6 in WNW 4 mph 11 mph 95% 0 in 39 W/m2
16:13 38.8 °F 37.2 °F 30.6 in WNW 6 mph 8 mph 94% 0 in 23 W/m2
16:18 39 °F 37.8 °F 30.6 in WNW 2.9 mph 11 mph 95% 0 in 19 W/m2
16:23 39 °F 37.4 °F 30.6 in NW 6.9 mph 10 mph 94% 0 in 16 W/m2
16:28 39 °F 37.4 °F 30.6 in WNW 2 mph 6 mph 94% 0 in 11 W/m2
16:33 39 °F 37.4 °F 30.6 in WSW 2.9 mph 7 mph 94% 0 in 9 W/m2
16:38 39 °F 37.4 °F 30.6 in WNW 2 mph 3 mph 94% 0 in 7 W/m2
16:43 39 °F 37.4 °F 30.6 in NW 0.9 mph 4 mph 94% 0 in 7 W/m2
16:48 39 °F 37.4 °F 30.6 in WNW 4 mph 8 mph 94% 0 in 5 W/m2
16:53 39 °F 37.4 °F 30.6 in WNW 8.1 mph 8 mph 94% 0 in 5 W/m2
16:58 39 °F 37.4 °F 30.6 in West 2.9 mph 10 mph 94% 0 in 5 W/m2
17:03 39 °F 37.4 °F 30.6 in WNW 2.9 mph 8 mph 94% 0 in 0 W/m2
17:08 39 °F 37.4 °F 30.6 in WNW 2.9 mph 5 mph 94% 0 in 0 W/m2
17:13 39 °F 37.4 °F 30.6 in WNW 2 mph 4 mph 94% 0 in 0 W/m2
17:18 38.8 °F 37.2 °F 30.6 in NW 2.9 mph 3 mph 94% 0 in 0 W/m2
17:23 38.8 °F 37.2 °F 30.6 in NW 0.9 mph 5 mph 94% 0 in 0 W/m2
17:28 39 °F 37.8 °F 30.6 in SSW 2.9 mph 5 mph 95% 0 in 0 W/m2
17:33 39 °F 37.8 °F 30.6 in West 2.9 mph 3 mph 95% 0 in 0 W/m2
17:38 39 °F 37.8 °F 30.6 in West 2 mph 5 mph 95% 0 in 0 W/m2
17:43 39 °F 37.8 °F 30.6 in WNW 2 mph 2 mph 95% 0 in 0 W/m2
17:48 39 °F 37.8 °F 30.6 in WSW 2 mph 7 mph 95% 0 in 0 W/m2
17:53 39 °F 37.8 °F 30.6 in West 2.9 mph 7 mph 95% 0 in 0 W/m2
17:58 39 °F 37.8 °F 30.6 in WNW 4 mph 7 mph 95% 0 in 0 W/m2
18:03 39 °F 37.8 °F 30.6 in WNW 2 mph 8 mph 95% 0 in 0 W/m2
18:08 39.2 °F 37.9 °F 30.6 in WNW 2.9 mph 7 mph 95% 0 in 0 W/m2
18:13 39.4 °F 37.8 °F 30.6 in West 6 mph 10 mph 94% 0 in 0 W/m2
18:18 39.4 °F 37.8 °F 30.6 in West 6 mph 10 mph 94% 0 in 0 W/m2
18:23 39.4 °F 37.8 °F 30.6 in West 2.9 mph 6 mph 94% 0 in 0 W/m2
18:28 39.6 °F 37.9 °F 30.6 in NW 4 mph 4 mph 94% 0 in 0 W/m2
18:33 39.6 °F 37.9 °F 30.6 in WSW 2.9 mph 7 mph 94% 0 in 0 W/m2
18:38 39.6 °F 37.9 °F 30.6 in West 0.9 mph 4 mph 94% 0 in 0 W/m2
18:43 39.6 °F 37.9 °F 30.6 in NW 2.9 mph 7 mph 94% 0 in 0 W/m2
18:48 39.6 °F 37.9 °F 30.6 in WSW 2 mph 3 mph 94% 0 in 0 W/m2
18:53 39.6 °F 37.9 °F 30.6 in WSW 4 mph 8 mph 94% 0 in 0 W/m2
18:58 39.6 °F 37.9 °F 30.6 in West 2 mph 8 mph 94% 0 in 0 W/m2
19:03 39.6 °F 37.9 °F 30.6 in NW 2 mph 4 mph 94% 0 in 0 W/m2
19:08 39.6 °F 37.9 °F 30.6 in West 0.9 mph 7 mph 94% 0 in 0 W/m2
19:13 39.6 °F 37.9 °F 30.6 in WNW 2 mph 6 mph 94% 0 in 0 W/m2
19:18 39.7 °F 38.1 °F 30.6 in NW 2 mph 4 mph 94% 0 in 0 W/m2
19:23 39.7 °F 38.1 °F 30.6 in West 0.9 mph 6 mph 94% 0 in 0 W/m2
19:28 39.6 °F 37.9 °F 30.6 in West 6 mph 7 mph 94% 0 in 0 W/m2
19:33 39.6 °F 37.9 °F 30.6 in West 2 mph 4 mph 94% 0 in 0 W/m2
19:38 39.6 °F 37.9 °F 30.6 in West 6 mph 7 mph 94% 0 in 0 W/m2
19:43 39.6 °F 37.9 °F 30.6 in West 2.9 mph 3 mph 94% 0 in 0 W/m2
19:48 39.6 °F 37.9 °F 30.6 in West 2 mph 4 mph 94% 0 in 0 W/m2
19:53 39.6 °F 37.9 °F 30.6 in SW 2 mph 4 mph 94% 0 in 0 W/m2
19:58 39.6 °F 37.9 °F 30.6 in WNW 2.9 mph 4 mph 94% 0 in 0 W/m2
20:03 39.6 °F 37.9 °F 30.6 in NW 2 mph 4 mph 94% 0 in 0 W/m2
20:08 39.6 °F 37.9 °F 30.6 in West 2.9 mph 4 mph 94% 0 in 0 W/m2
20:13 39.6 °F 37.9 °F 30.6 in Calm   3 mph 94% 0 in 0 W/m2
20:18 39.6 °F 37.9 °F 30.6 in West 0.9 mph 3 mph 94% 0 in 0 W/m2
20:23 39.6 °F 37.9 °F 30.6 in West 2 mph 3 mph 94% 0 in 0 W/m2
20:28 39.6 °F 37.9 °F 30.6 in North 0.9 mph 3 mph 94% 0 in 0 W/m2
20:34 39.6 °F 37.9 °F 30.6 in Calm   3 mph 94% 0 in 0 W/m2
20:39 39.6 °F 37.9 °F 30.6 in WNW 0.9 mph 3 mph 94% 0 in 0 W/m2
20:44 39.6 °F 37.9 °F 30.6 in WSW 0.9 mph 3 mph 94% 0 in 0 W/m2
20:49 39.6 °F 37.9 °F 30.6 in West 2 mph 4 mph 94% 0 in 0 W/m2
20:54 39.7 °F 38.1 °F 30.6 in West 2.9 mph 3 mph 94% 0 in 0 W/m2
20:59 39.7 °F 38.1 °F 30.6 in WNW 0.9 mph 4 mph 94% 0 in 0 W/m2
21:04 39.7 °F 38.1 °F 30.6 in West 4 mph 4 mph 94% 0 in 0 W/m2
21:09 39.7 °F 38.1 °F 30.6 in WSW 2.9 mph 4 mph 94% 0 in 0 W/m2
21:14 39.9 °F 38.3 °F 30.6 in West 2 mph 6 mph 94% 0 in 0 W/m2
21:19 39.9 °F 38.3 °F 30.6 in WNW 2 mph 3 mph 94% 0 in 0 W/m2
21:24 39.9 °F 38.3 °F 30.6 in WNW 0.9 mph 3 mph 94% 0 in 0 W/m2
21:29 39.9 °F 38.1 °F 30.6 in WNW 2.9 mph 7 mph 93% 0 in 0 W/m2
21:34 39.9 °F 38.1 °F 30.6 in NW 2 mph 2 mph 93% 0 in 0 W/m2
21:39 39.9 °F 38.1 °F 30.6 in Calm     93% 0 in 0 W/m2
21:44 39.9 °F 38.1 °F 30.6 in Calm   2 mph 93% 0 in 0 W/m2
21:49 39.7 °F 38.1 °F 30.6 in WNW 0.9 mph 2 mph 94% 0 in 0 W/m2
21:54 39.7 °F 38.1 °F 30.6 in West 0.9 mph 4 mph 94% 0 in 0 W/m2
21:59 39.6 °F 37.9 °F 30.6 in West 2.9 mph 7 mph 94% 0 in 0 W/m2
22:04 39.6 °F 37.9 °F 30.6 in WNW 0.9 mph 4 mph 94% 0 in 0 W/m2
22:09 39.4 °F 37.8 °F 30.6 in WNW 2 mph 6 mph 94% 0 in 0 W/m2
22:14 39.4 °F 37.8 °F 30.6 in WNW 2 mph 3 mph 94% 0 in 0 W/m2
22:19 39.4 °F 37.8 °F 30.6 in WNW 4 mph 8 mph 94% 0 in 0 W/m2
22:24 39.4 °F 37.8 °F 30.6 in WNW 0.9 mph 3 mph 94% 0 in 0 W/m2
22:29 39.4 °F 37.8 °F 30.6 in West 2.9 mph 8 mph 94% 0 in 0 W/m2
22:34 39.6 °F 38.3 °F 30.6 in West 4 mph 8 mph 95% 0 in 0 W/m2
22:39 39.6 °F 37.9 °F 30.6 in West 2.9 mph 4 mph 94% 0 in 0 W/m2
22:44 39.6 °F 37.9 °F 30.6 in West 6 mph 6 mph 94% 0 in 0 W/m2
22:49 39.4 °F 37.8 °F 30.6 in WNW 0.9 mph 4 mph 94% 0 in 0 W/m2
22:54 39.6 °F 37.9 °F 30.6 in NW 0.9 mph 3 mph 94% 0 in 0 W/m2
22:59 39.6 °F 37.9 °F 30.6 in WNW 0.9 mph 3 mph 94% 0 in 0 W/m2
23:04 39.6 °F 37.9 °F 30.6 in NW 2.9 mph 4 mph 94% 0 in 0 W/m2
23:09 39.7 °F 38.1 °F 30.6 in NW 2 mph 6 mph 94% 0 in 0 W/m2
23:14 39.7 °F 38.1 °F 30.6 in West 2 mph 4 mph 94% 0 in 0 W/m2
23:19 39.7 °F 38.1 °F 30.6 in WNW 0.9 mph 5 mph 94% 0 in 0 W/m2
23:24 39.7 °F 38.1 °F 30.6 in WNW 0.9 mph 6 mph 94% 0 in 0 W/m2
23:29 39.7 °F 38.1 °F 30.6 in WNW 0.9 mph 2 mph 94% 0 in 0 W/m2
23:34 39.6 °F 37.9 °F 30.6 in West 2 mph 3 mph 94% 0 in 0 W/m2
23:39 39.6 °F 37.9 °F 30.6 in WNW 2.9 mph 3 mph 94% 0 in 0 W/m2
23:44 39.6 °F 37.9 °F 30.6 in Calm   2 mph 94% 0 in 0 W/m2
23:49 39.4 °F 37.8 °F 30.6 in West 2 mph 4 mph 94% 0 in 0 W/m2
23:54 39.4 °F 37.8 °F 30.6 in WNW 2 mph 3 mph 94% 0 in 0 W/m2
23:59 39.2 °F 37.6 °F 30.6 in West 0.9 mph 4 mph 94% 0 in 0 W/m2
Juneau County Weather
Compliments of Weather Underground - 4 mb